createdAt,value
2022-11-05T00:01:08.184Z,9.11
2022-11-05T00:03:53.696Z,9.13
2022-11-05T00:06:39.140Z,9.17
2022-11-05T00:09:26.807Z,9.19
2022-11-05T00:12:12.072Z,9.22
2022-11-05T00:14:57.040Z,9.24
2022-11-05T00:17:23.803Z,9.25
2022-11-05T00:19:50.384Z,9.25
2022-11-05T00:22:35.285Z,9.26
2022-11-05T00:25:17.373Z,9.28
2022-11-05T00:27:49.606Z,9.33
2022-11-05T00:30:20.639Z,9.32
2022-11-05T00:32:48.687Z,9.32
2022-11-05T00:35:16.503Z,9.32
2022-11-05T00:37:48.745Z,9.33
2022-11-05T00:40:16.601Z,9.35
2022-11-05T00:43:02.239Z,9.37
2022-11-05T00:45:30.478Z,9.38
2022-11-05T00:48:15.581Z,9.40
2022-11-05T00:50:42.473Z,9.41
2022-11-05T00:53:09.408Z,9.41
2022-11-05T00:55:39.347Z,9.39
2022-11-05T00:58:17.630Z,9.38
2022-11-05T01:00:48.692Z,9.36
2022-11-05T01:03:17.203Z,9.33
2022-11-05T01:05:47.349Z,9.31
2022-11-05T01:08:15.815Z,9.29
2022-11-05T01:10:48.739Z,9.27
2022-11-05T01:13:21.446Z,9.24
2022-11-05T01:15:48.570Z,9.22
2022-11-05T01:18:15.237Z,9.22
2022-11-05T01:20:41.932Z,9.20
2022-11-05T01:23:13.217Z,9.19
2022-11-05T01:25:41.768Z,9.18
2022-11-05T01:28:09.721Z,9.16
2022-11-05T01:30:37.665Z,9.15
2022-11-05T01:33:04.543Z,9.15
2022-11-05T01:35:31.248Z,9.14
2022-11-05T01:37:57.936Z,9.15
2022-11-05T01:40:25.894Z,9.14
2022-11-05T01:42:52.569Z,9.14
2022-11-05T01:45:22.670Z,9.14
2022-11-05T01:48:09.860Z,9.13
2022-11-05T01:50:42.440Z,9.12
2022-11-05T01:53:24.093Z,9.12
2022-11-05T01:56:09.556Z,9.13
2022-11-05T01:58:53.177Z,9.14
2022-11-05T02:01:20.248Z,9.14
2022-11-05T02:03:49.376Z,9.13
2022-11-05T02:06:17.503Z,9.13
2022-11-05T02:09:05.485Z,9.14
2022-11-05T02:11:32.256Z,9.13
2022-11-05T02:13:59.277Z,9.13
2022-11-05T02:16:38.063Z,9.13
2022-11-05T02:19:38.689Z,9.13
2022-11-05T02:22:36.184Z,9.13
2022-11-05T02:25:14.648Z,9.13
2022-11-05T02:27:41.172Z,9.13
2022-11-05T02:30:26.376Z,9.15
2022-11-05T02:32:52.914Z,9.15
2022-11-05T02:35:37.038Z,9.16
2022-11-05T02:38:11.517Z,9.16
2022-11-05T02:40:54.112Z,9.16
2022-11-05T02:44:06.895Z,9.16
2022-11-05T02:46:54.292Z,9.15
2022-11-05T02:49:39.542Z,9.14
2022-11-05T02:52:21.568Z,9.16
2022-11-05T02:55:43.425Z,9.16
2022-11-05T02:58:11.450Z,9.14
2022-11-05T03:00:40.987Z,9.13
2022-11-05T03:03:30.199Z,9.14
2022-11-05T03:06:15.364Z,9.11
2022-11-05T03:09:00.349Z,9.12
2022-11-05T03:11:31.053Z,9.11
2022-11-05T03:14:05.953Z,9.11
2022-11-05T03:16:32.484Z,9.13
2022-11-05T03:19:04.012Z,9.14
2022-11-05T03:21:53.854Z,9.15
2022-11-05T03:24:46.595Z,9.13
2022-11-05T03:27:20.557Z,9.12
2022-11-05T03:29:51.428Z,9.12
2022-11-05T03:32:22.498Z,9.12
2022-11-05T03:34:56.887Z,9.13
2022-11-05T03:37:27.903Z,9.14
2022-11-05T03:40:00.409Z,9.15
2022-11-05T03:42:32.763Z,9.16
2022-11-05T03:45:01.860Z,9.16
2022-11-05T03:47:35.382Z,9.14
2022-11-05T03:50:14.418Z,9.12
2022-11-05T03:52:48.195Z,9.12
2022-11-05T03:55:15.512Z,9.12
2022-11-05T03:57:47.252Z,9.12
2022-11-05T04:00:14.692Z,9.12
2022-11-05T04:02:41.895Z,9.12
2022-11-05T04:05:08.708Z,9.11
2022-11-05T04:07:53.877Z,9.11
2022-11-05T04:10:39.152Z,9.11
2022-11-05T04:13:24.175Z,9.10
2022-11-05T04:16:10.789Z,9.09
2022-11-05T04:18:37.960Z,9.08
2022-11-05T04:21:24.306Z,9.09
2022-11-05T04:24:09.272Z,9.08
2022-11-05T04:26:41.512Z,9.07
2022-11-05T04:29:26.795Z,9.06
2022-11-05T04:31:53.439Z,9.06
2022-11-05T04:34:22.113Z,9.05
2022-11-05T04:36:50.529Z,9.05
2022-11-05T04:39:20.857Z,9.05
2022-11-05T04:41:50.582Z,9.05
2022-11-05T04:44:17.297Z,9.06
2022-11-05T04:46:44.095Z,9.06
2022-11-05T04:49:10.777Z,9.07
2022-11-05T04:51:37.399Z,9.07
2022-11-05T04:54:04.223Z,9.08
2022-11-05T04:56:30.871Z,9.08
2022-11-05T04:58:57.557Z,9.10
2022-11-05T05:01:25.462Z,9.10
2022-11-05T05:03:53.961Z,9.12
2022-11-05T05:06:21.637Z,9.13
2022-11-05T05:08:49.665Z,9.14
2022-11-05T05:11:18.938Z,9.15
2022-11-05T05:13:45.655Z,9.17
2022-11-05T05:16:24.007Z,9.18
2022-11-05T05:18:51.172Z,9.20
2022-11-05T05:21:38.037Z,9.21
2022-11-05T05:24:08.885Z,9.22
2022-11-05T05:26:37.277Z,9.23
2022-11-05T05:29:04.220Z,9.24
2022-11-05T05:31:31.188Z,9.25
2022-11-05T05:33:57.992Z,9.26
2022-11-05T05:36:24.644Z,9.30
2022-11-05T05:38:51.364Z,9.34
2022-11-05T05:41:18.204Z,9.38
2022-11-05T05:43:45.224Z,9.39
2022-11-05T05:46:14.104Z,9.42
2022-11-05T05:48:41.457Z,9.45
2022-11-05T05:51:10.832Z,9.47
2022-11-05T05:53:38.680Z,9.48
2022-11-05T05:56:06.079Z,9.50
2022-11-05T05:58:39.342Z,9.52
2022-11-05T06:01:17.271Z,9.53
2022-11-05T06:03:45.512Z,9.52
2022-11-05T06:06:13.601Z,9.55
2022-11-05T06:08:41.107Z,9.55
2022-11-05T06:11:08.487Z,9.57
2022-11-05T06:13:36.072Z,9.63
2022-11-05T06:16:08.291Z,9.76
2022-11-05T06:18:35.791Z,9.86
2022-11-05T06:21:04.101Z,9.96
2022-11-05T06:23:35.087Z,10.11
2022-11-05T06:26:06.827Z,10.20
2022-11-05T06:28:33.696Z,10.28
2022-11-05T06:31:00.508Z,10.34
2022-11-05T06:33:27.191Z,10.40
2022-11-05T06:35:54.517Z,10.45
2022-11-05T06:38:21.224Z,10.46
2022-11-05T06:40:47.801Z,10.47
2022-11-05T06:43:14.659Z,10.52
2022-11-05T06:45:41.798Z,10.58
2022-11-05T06:48:08.545Z,10.64
2022-11-05T06:50:35.248Z,10.68
2022-11-05T06:53:03.849Z,10.70
2022-11-05T06:55:31.771Z,10.73
2022-11-05T06:57:58.470Z,10.73
2022-11-05T07:00:26.883Z,10.75
2022-11-05T07:02:55.849Z,10.76
2022-11-05T07:05:23.425Z,10.77
2022-11-05T07:07:50.120Z,10.78
2022-11-05T07:10:18.619Z,10.79
2022-11-05T07:12:45.211Z,10.79
2022-11-05T07:15:12.616Z,10.80
2022-11-05T07:17:40.307Z,10.84
2022-11-05T07:20:08.336Z,10.88
2022-11-05T07:22:35.874Z,10.90
2022-11-05T07:25:03.146Z,10.91
2022-11-05T07:27:29.795Z,10.91
2022-11-05T07:29:56.381Z,10.92
2022-11-05T07:32:23.018Z,10.94
2022-11-05T07:34:49.682Z,10.96
2022-11-05T07:37:18.858Z,10.99
2022-11-05T07:39:45.512Z,11.02
2022-11-05T07:42:13.756Z,11.07
2022-11-05T07:44:40.779Z,11.13
2022-11-05T07:47:07.592Z,11.14
2022-11-05T07:49:34.181Z,11.17
2022-11-05T07:52:00.828Z,11.19
2022-11-05T07:54:27.671Z,11.21
2022-11-05T07:56:54.303Z,11.26
2022-11-05T07:59:20.934Z,11.25
2022-11-05T08:01:47.753Z,11.29
2022-11-05T08:04:14.586Z,11.33
2022-11-05T08:06:41.200Z,11.35
2022-11-05T08:09:07.977Z,11.36
2022-11-05T08:11:35.925Z,11.39
2022-11-05T08:14:02.647Z,11.41
2022-11-05T08:16:29.301Z,11.44
2022-11-05T08:18:55.931Z,11.45
2022-11-05T08:21:22.570Z,11.47
2022-11-05T08:23:49.192Z,11.48
2022-11-05T08:26:15.815Z,11.49
2022-11-05T08:28:42.515Z,11.52
2022-11-05T08:31:09.143Z,11.56
2022-11-05T08:33:35.767Z,11.61
2022-11-05T08:36:04.198Z,11.62
2022-11-05T08:38:30.970Z,11.65
2022-11-05T08:40:58.408Z,11.69
2022-11-05T08:43:25.324Z,11.74
2022-11-05T08:45:52.156Z,11.78
2022-11-05T08:48:19.635Z,11.83
2022-11-05T08:50:48.428Z,11.85
2022-11-05T08:53:16.123Z,11.90
2022-11-05T08:55:44.022Z,11.96
2022-11-05T08:58:15.191Z,11.98
2022-11-05T09:00:43.234Z,12.00
2022-11-05T09:03:10.786Z,12.03
2022-11-05T09:05:39.528Z,12.04
2022-11-05T09:08:08.266Z,12.04
2022-11-05T09:10:35.448Z,12.06
2022-11-05T09:13:02.704Z,12.05
2022-11-05T09:15:30.671Z,12.09
2022-11-05T09:17:57.769Z,12.13
2022-11-05T09:20:24.519Z,12.15
2022-11-05T09:22:51.655Z,12.19
2022-11-05T09:25:18.346Z,12.22
2022-11-05T09:27:45.034Z,12.23
2022-11-05T09:30:13.491Z,12.23
2022-11-05T09:32:40.662Z,12.23
2022-11-05T09:35:08.076Z,12.22
2022-11-05T09:37:35.716Z,12.21
2022-11-05T09:40:02.467Z,12.23
2022-11-05T09:42:43.270Z,12.24
2022-11-05T09:45:19.090Z,12.24
2022-11-05T09:48:01.256Z,12.25
2022-11-05T09:50:36.719Z,12.22
2022-11-05T09:53:04.588Z,12.21
2022-11-05T09:55:38.703Z,12.20
2022-11-05T09:58:14.291Z,12.19
2022-11-05T10:00:41.929Z,12.18
2022-11-05T10:03:14.521Z,12.15
2022-11-05T10:05:41.591Z,12.13
2022-11-05T10:08:17.571Z,12.07
2022-11-05T10:11:01.513Z,12.02
2022-11-05T10:13:42.359Z,11.95
2022-11-05T10:16:31.472Z,11.90
2022-11-05T10:19:13.221Z,11.87
2022-11-05T10:24:28.337Z,11.84
2022-11-05T10:26:56.344Z,11.86
2022-11-05T10:29:29.439Z,11.90
2022-11-05T10:32:03.268Z,11.97
2022-11-05T10:34:33.494Z,12.06
2022-11-05T10:37:00.941Z,12.13
2022-11-05T10:39:29.499Z,12.20
2022-11-05T10:42:06.232Z,12.27
2022-11-05T10:44:56.729Z,12.36
2022-11-05T10:47:23.247Z,12.45
2022-11-05T10:50:09.724Z,12.47
2022-11-05T10:52:56.878Z,12.47
2022-11-05T10:55:34.483Z,12.34
2022-11-05T10:58:35.311Z,12.23
2022-11-05T11:01:06.290Z,12.13
2022-11-05T11:03:38.926Z,12.10
2022-11-05T11:06:34.540Z,12.07
2022-11-05T11:09:06.394Z,12.06
2022-11-05T11:11:39.192Z,12.05
2022-11-05T11:14:11.740Z,12.07
2022-11-05T11:16:46.921Z,12.13
2022-11-05T11:19:30.487Z,12.23
2022-11-05T11:22:02.948Z,12.30
2022-11-05T11:24:33.549Z,12.33
2022-11-05T11:27:33.598Z,12.33
2022-11-05T11:30:02.477Z,12.29
2022-11-05T11:32:36.279Z,12.23
2022-11-05T11:35:04.529Z,12.18
2022-11-05T11:37:42.539Z,12.13
2022-11-05T11:40:17.530Z,12.07
2022-11-05T11:42:47.501Z,12.03
2022-11-05T11:45:32.901Z,12.05
2022-11-05T11:48:04.128Z,12.12
2022-11-05T11:50:35.875Z,12.24
2022-11-05T11:53:23.976Z,12.31
2022-11-05T11:55:59.878Z,12.29
2022-11-05T11:58:45.113Z,12.31
2022-11-05T12:01:23.951Z,12.31
2022-11-05T12:04:08.590Z,12.33
2022-11-05T12:07:04.939Z,12.33
2022-11-05T12:10:00.224Z,12.29
2022-11-05T12:12:49.593Z,12.28
2022-11-05T12:15:19.052Z,12.31
2022-11-05T12:18:04.725Z,12.38
2022-11-05T12:20:48.652Z,12.42
2022-11-05T12:23:43.213Z,12.45
2022-11-05T12:26:48.927Z,12.47
2022-11-05T12:29:35.934Z,12.56
2022-11-05T12:32:24.534Z,12.63
2022-11-05T12:35:18.262Z,12.65
2022-11-05T12:38:03.264Z,12.62
2022-11-05T12:41:00.783Z,12.56
2022-11-05T12:43:45.457Z,12.49
2022-11-05T12:46:53.256Z,12.45
2022-11-05T12:49:55.340Z,12.41
2022-11-05T12:52:30.667Z,12.42
2022-11-05T12:55:18.287Z,12.49
2022-11-05T12:57:49.688Z,12.54
2022-11-05T13:00:18.790Z,12.61
2022-11-05T13:02:49.764Z,12.68
2022-11-05T13:05:35.817Z,12.73
2022-11-05T13:08:12.181Z,12.75
2022-11-05T13:10:46.339Z,12.77
2022-11-05T13:13:23.252Z,12.86
2022-11-05T13:15:54.520Z,12.91
2022-11-05T13:18:31.893Z,12.96
2022-11-05T13:21:02.176Z,12.92
2022-11-05T13:23:46.188Z,12.96
2022-11-05T13:26:33.162Z,13.05
2022-11-05T13:29:30.035Z,13.13
2022-11-05T13:32:26.848Z,13.20
2022-11-05T13:34:58.464Z,13.15
2022-11-05T13:37:47.400Z,13.14
2022-11-05T13:40:18.208Z,13.18
2022-11-05T13:43:18.035Z,13.26
2022-11-05T13:46:06.429Z,13.17
2022-11-05T13:48:51.980Z,13.04
2022-11-05T13:51:39.300Z,12.95
2022-11-05T13:54:09.160Z,12.87
2022-11-05T13:56:56.921Z,12.70
2022-11-05T14:00:00.721Z,12.76
2022-11-05T14:02:36.959Z,12.90
2022-11-05T14:05:06.109Z,13.05
2022-11-05T14:07:36.909Z,13.18
2022-11-05T14:10:06.543Z,13.30
2022-11-05T14:12:40.687Z,13.43
2022-11-05T14:15:20.237Z,13.49
2022-11-05T14:18:00.538Z,13.35
2022-11-05T14:20:32.987Z,13.27
2022-11-05T14:23:17.743Z,13.26
2022-11-05T14:25:44.440Z,13.24
2022-11-05T14:28:36.213Z,13.24
2022-11-05T14:31:05.265Z,13.21
2022-11-05T14:33:38.003Z,13.16
2022-11-05T14:36:37.599Z,13.10
2022-11-05T14:39:16.101Z,13.06
2022-11-05T14:42:14.764Z,13.04
2022-11-05T14:44:59.829Z,13.02
2022-11-05T14:47:40.765Z,13.02
2022-11-05T14:50:12.013Z,13.03
2022-11-05T14:52:41.132Z,13.01
2022-11-05T14:55:29.141Z,12.98
2022-11-05T14:57:55.766Z,12.96
2022-11-05T15:00:28.326Z,12.94
2022-11-05T15:03:27.104Z,12.83
2022-11-05T15:06:21.912Z,12.75
2022-11-05T15:08:48.591Z,12.68
2022-11-05T15:11:29.196Z,12.61
2022-11-05T15:13:55.744Z,12.53
2022-11-05T15:16:44.277Z,12.47
2022-11-05T15:19:31.627Z,12.39
2022-11-05T15:22:02.105Z,12.31
2022-11-05T15:24:29.529Z,12.24
2022-11-05T15:27:17.867Z,12.18
2022-11-05T15:29:44.466Z,12.13
2022-11-05T15:32:17.411Z,12.08
2022-11-05T15:34:55.010Z,12.05
2022-11-05T15:37:27.781Z,12.03
2022-11-05T15:39:55.443Z,12.03
2022-11-05T15:42:26.736Z,12.04
2022-11-05T15:44:55.593Z,12.05
2022-11-05T15:47:34.249Z,12.04
2022-11-05T15:50:09.997Z,12.00
2022-11-05T15:52:48.740Z,11.95
2022-11-05T15:55:23.801Z,11.91
2022-11-05T15:57:52.128Z,11.86
2022-11-05T16:00:25.530Z,11.82
2022-11-05T16:02:52.254Z,11.76
2022-11-05T16:05:19.173Z,11.72
2022-11-05T16:07:47.569Z,11.70
2022-11-05T16:10:24.297Z,11.63
2022-11-05T16:12:51.172Z,11.59
2022-11-05T16:15:32.243Z,11.52
2022-11-05T16:17:59.973Z,11.48
2022-11-05T16:20:38.467Z,11.45
2022-11-05T16:23:07.526Z,11.40
2022-11-05T16:25:39.901Z,11.36
2022-11-05T16:28:24.643Z,11.30
2022-11-05T16:30:52.385Z,11.26
2022-11-05T16:33:19.181Z,11.19
2022-11-05T16:35:49.975Z,11.12
2022-11-05T16:38:17.846Z,11.07
2022-11-05T16:40:44.502Z,11.02
2022-11-05T16:43:21.087Z,10.96
2022-11-05T16:45:48.341Z,10.91
2022-11-05T16:48:16.489Z,10.86
2022-11-05T16:50:43.863Z,10.83
2022-11-05T16:53:10.662Z,10.79
2022-11-05T16:55:39.498Z,10.73
2022-11-05T16:58:18.631Z,10.71
2022-11-05T17:00:45.554Z,10.67
2022-11-05T17:03:12.216Z,10.62
2022-11-05T17:05:38.857Z,10.57
2022-11-05T17:08:05.605Z,10.54
2022-11-05T17:10:32.204Z,10.51
2022-11-05T17:12:58.827Z,10.51
2022-11-05T17:15:29.592Z,10.50
2022-11-05T17:17:56.551Z,10.48
2022-11-05T17:20:41.028Z,10.46
2022-11-05T17:23:13.178Z,10.44
2022-11-05T17:25:42.097Z,10.42
2022-11-05T17:28:10.068Z,10.39
2022-11-05T17:30:40.341Z,10.35
2022-11-05T17:33:09.184Z,10.31
2022-11-05T17:35:38.702Z,10.28
2022-11-05T17:38:05.511Z,10.22
2022-11-05T17:40:34.672Z,10.19
2022-11-05T17:43:01.612Z,10.15
2022-11-05T17:45:28.419Z,10.11
2022-11-05T17:47:55.286Z,10.11
2022-11-05T17:50:21.924Z,10.06
2022-11-05T17:52:48.684Z,10.03
2022-11-05T17:55:17.880Z,10.02
2022-11-05T17:57:49.000Z,10.00
2022-11-05T18:00:19.109Z,9.97
2022-11-05T18:02:47.295Z,9.93
2022-11-05T18:05:14.527Z,9.89
2022-11-05T18:07:41.771Z,9.87
2022-11-05T18:10:09.165Z,9.87
2022-11-05T18:12:35.939Z,9.85
2022-11-05T18:15:02.691Z,9.82
2022-11-05T18:17:29.801Z,9.80
2022-11-05T18:19:56.426Z,9.76
2022-11-05T18:22:23.185Z,9.76
2022-11-05T18:24:50.135Z,9.75
2022-11-05T18:27:16.733Z,9.74
2022-11-05T18:29:43.443Z,9.72
2022-11-05T18:32:12.240Z,9.68
2022-11-05T18:34:38.973Z,9.63
2022-11-05T18:37:05.647Z,9.63
2022-11-05T18:39:32.257Z,9.64
2022-11-05T18:41:58.872Z,9.62
2022-11-05T18:44:25.667Z,9.58
2022-11-05T18:46:58.051Z,9.55
2022-11-05T18:49:25.849Z,9.52
2022-11-05T18:51:52.541Z,9.52
2022-11-05T18:54:19.498Z,9.53
2022-11-05T18:56:46.600Z,9.53
2022-11-05T19:02:04.264Z,9.53
2022-11-05T19:04:31.017Z,9.50
2022-11-05T19:07:03.114Z,9.48
2022-11-05T19:09:31.320Z,9.46
2022-11-05T19:11:58.020Z,9.45
2022-11-05T19:14:24.631Z,9.42
2022-11-05T19:16:51.289Z,9.40
2022-11-05T19:19:18.026Z,9.35
2022-11-05T19:21:44.611Z,9.34
2022-11-05T19:24:16.735Z,9.34
2022-11-05T19:26:44.254Z,9.29
2022-11-05T19:29:11.661Z,9.25
2022-11-05T19:31:38.596Z,9.23
2022-11-05T19:34:05.669Z,9.19
2022-11-05T19:36:33.623Z,9.18
2022-11-05T19:39:07.370Z,9.17
2022-11-05T19:41:34.209Z,9.17
2022-11-05T19:44:01.943Z,9.16
2022-11-05T19:46:30.145Z,9.21
2022-11-05T19:48:57.220Z,9.25
2022-11-05T19:51:26.458Z,9.28
2022-11-05T19:53:55.196Z,9.28
2022-11-05T19:56:26.737Z,9.28
2022-11-05T19:58:54.009Z,9.30
2022-11-05T20:01:22.543Z,9.29
2022-11-05T20:03:49.879Z,9.28
2022-11-05T20:06:19.570Z,9.26
2022-11-05T20:09:19.822Z,9.25
2022-11-05T20:11:35.903Z,9.24
2022-11-05T20:14:03.429Z,9.24
2022-11-05T20:16:36.875Z,9.24
2022-11-05T20:19:06.549Z,9.26
2022-11-05T20:21:33.714Z,9.32
2022-11-05T20:24:00.556Z,9.38
2022-11-05T20:26:27.592Z,9.43
2022-11-05T20:28:54.550Z,9.49
2022-11-05T20:31:21.500Z,9.53
2022-11-05T20:33:48.502Z,9.57
2022-11-05T20:36:22.166Z,9.61
2022-11-05T20:38:55.246Z,9.62
2022-11-05T20:41:22.427Z,9.65
2022-11-05T20:43:49.066Z,9.68
2022-11-05T20:46:18.827Z,9.69
2022-11-05T20:48:46.079Z,9.70
2022-11-05T20:51:16.096Z,9.71
2022-11-05T20:53:43.798Z,9.73
2022-11-05T20:56:23.072Z,9.74
2022-11-05T20:58:50.485Z,9.80
2022-11-05T21:01:18.636Z,9.87
2022-11-05T21:03:46.889Z,9.98
2022-11-05T21:06:13.949Z,10.09
2022-11-05T21:08:40.667Z,10.17
2022-11-05T21:11:07.807Z,10.22
2022-11-05T21:13:34.780Z,10.25
2022-11-05T21:16:02.905Z,10.28
2022-11-05T21:18:31.765Z,10.32
2022-11-05T21:21:00.442Z,10.34
2022-11-05T21:23:28.552Z,10.35
2022-11-05T21:25:55.618Z,10.36
2022-11-05T21:28:23.116Z,10.37
2022-11-05T21:30:49.890Z,10.36
2022-11-05T21:33:18.101Z,10.36
2022-11-05T21:35:48.166Z,10.36
2022-11-05T21:38:17.077Z,10.36
2022-11-05T21:40:44.775Z,10.34
2022-11-05T21:43:11.981Z,10.35
2022-11-05T21:45:44.169Z,10.35
2022-11-05T21:48:11.401Z,10.32
2022-11-05T21:50:57.648Z,10.31
2022-11-05T21:53:43.305Z,10.29
2022-11-05T21:56:45.551Z,10.28
2022-11-05T21:59:33.957Z,10.26
2022-11-05T22:02:03.604Z,10.26
2022-11-05T22:04:32.756Z,10.27
2022-11-05T22:06:59.793Z,10.28
2022-11-05T22:09:27.333Z,10.28
2022-11-05T22:11:54.512Z,10.27
2022-11-05T22:14:21.735Z,10.26
2022-11-05T22:16:49.001Z,10.25
2022-11-05T22:19:16.161Z,10.24
2022-11-05T22:21:42.899Z,10.22
2022-11-05T22:24:09.979Z,10.20
2022-11-05T22:26:38.180Z,10.18
2022-11-05T22:29:06.396Z,10.17
2022-11-05T22:31:36.233Z,10.16
2022-11-05T22:34:04.809Z,10.15
2022-11-05T22:36:32.573Z,10.16
2022-11-05T22:38:59.341Z,10.16
2022-11-05T22:41:26.165Z,10.16
2022-11-05T22:43:52.799Z,10.17
2022-11-05T22:46:22.621Z,10.17
2022-11-05T22:48:49.791Z,10.17
2022-11-05T22:51:28.077Z,10.19
2022-11-05T22:53:56.760Z,10.18
2022-11-05T22:56:25.944Z,10.19
2022-11-05T22:58:52.851Z,10.21
2022-11-05T23:01:21.517Z,10.20
2022-11-05T23:03:49.985Z,10.22
2022-11-05T23:06:41.553Z,10.23
2022-11-05T23:09:39.002Z,10.26
2022-11-05T23:12:08.552Z,10.28
2022-11-05T23:14:36.660Z,10.30
2022-11-05T23:17:22.058Z,10.32
2022-11-05T23:20:07.299Z,10.33
2022-11-05T23:22:52.451Z,10.34
2022-11-05T23:25:21.650Z,10.35
2022-11-05T23:27:50.484Z,10.36
2022-11-05T23:30:23.452Z,10.36
2022-11-05T23:32:51.210Z,10.37
2022-11-05T23:35:39.468Z,10.36
2022-11-05T23:38:25.025Z,10.34
2022-11-05T23:41:10.690Z,10.31
2022-11-05T23:43:55.654Z,10.27
2022-11-05T23:46:40.990Z,10.22
2022-11-05T23:49:07.886Z,10.19
2022-11-05T23:51:34.828Z,10.16
2022-11-05T23:54:01.491Z,10.15
2022-11-05T23:56:28.206Z,10.12
2022-11-05T23:58:54.834Z,10.09
